createdAt,value
2019-04-14T00:00:01.497Z,70.10
2019-04-14T00:02:38.241Z,69.90
2019-04-14T00:05:10.336Z,70.00
2019-04-14T00:07:39.085Z,70.50
2019-04-14T00:10:09.565Z,70.40
2019-04-14T00:12:38.454Z,70.50
2019-04-14T00:15:23.489Z,70.90
2019-04-14T00:17:39.641Z,71.40
2019-04-14T00:20:18.636Z,70.70
2019-04-14T00:22:47.355Z,70.90
2019-04-14T00:25:17.299Z,71.30
2019-04-14T00:27:46.001Z,71.20
2019-04-14T00:30:18.795Z,71.20
2019-04-14T00:32:53.096Z,71.60
2019-04-14T00:35:23.401Z,71.30
2019-04-14T00:38:10.599Z,71.70
2019-04-14T00:40:59.231Z,71.50
2019-04-14T00:43:29.550Z,71.50
2019-04-14T00:46:01.381Z,72.30
2019-04-14T00:48:30.378Z,71.90
2019-04-14T00:50:58.917Z,71.70
2019-04-14T00:53:27.547Z,72.00
2019-04-14T00:55:56.149Z,71.90
2019-04-14T00:58:25.738Z,72.60
2019-04-14T01:00:54.369Z,72.70
2019-04-14T01:03:22.981Z,72.70
2019-04-14T01:05:52.515Z,72.60
2019-04-14T01:08:21.264Z,72.40
2019-04-14T01:10:49.932Z,72.10
2019-04-14T01:13:18.499Z,71.70
2019-04-14T01:15:54.847Z,71.40
2019-04-14T01:18:17.383Z,71.80
2019-04-14T01:20:47.016Z,72.10
2019-04-14T01:23:15.700Z,72.70
2019-04-14T01:25:45.231Z,72.10
2019-04-14T01:28:14.032Z,72.40
2019-04-14T01:30:43.629Z,72.90
2019-04-14T01:33:12.416Z,72.50
2019-04-14T01:35:42.048Z,72.40
2019-04-14T01:38:10.665Z,72.00
2019-04-14T01:40:40.152Z,71.90
2019-04-14T01:43:09.972Z,71.70
2019-04-14T01:45:38.898Z,71.60
2019-04-14T01:48:08.403Z,72.00
2019-04-14T01:50:47.680Z,72.20
2019-04-14T01:53:33.609Z,71.80
2019-04-14T01:56:06.350Z,71.60
2019-04-14T01:58:36.468Z,71.80
2019-04-14T02:01:10.553Z,72.00
2019-04-14T02:03:39.109Z,71.60
2019-04-14T02:06:07.813Z,72.40
2019-04-14T02:08:37.229Z,71.50
2019-04-14T02:11:05.837Z,71.70
2019-04-14T02:13:35.454Z,71.70
2019-04-14T02:16:15.058Z,72.00
2019-04-14T02:18:34.524Z,71.30
2019-04-14T02:21:04.198Z,71.50
2019-04-14T02:23:34.305Z,71.30
2019-04-14T02:26:02.956Z,72.20
2019-04-14T02:28:31.594Z,71.50
2019-04-14T02:31:12.982Z,71.20
2019-04-14T02:38:55.264Z,71.40
2019-04-14T02:41:47.051Z,71.60
2019-04-14T02:44:15.396Z,71.70
2019-04-14T02:46:32.038Z,71.40
2019-04-14T02:51:29.273Z,72.40
2019-04-14T02:53:59.195Z,71.90
2019-04-14T02:56:31.001Z,72.00
2019-04-14T02:58:58.652Z,71.70
2019-04-14T03:01:35.325Z,72.10
2019-04-14T03:03:56.459Z,72.20
2019-04-14T03:06:25.650Z,72.10
2019-04-14T03:09:12.582Z,72.10
2019-04-14T03:11:31.274Z,72.80
2019-04-14T03:14:07.473Z,72.80
2019-04-14T03:16:44.720Z,73.50
2019-04-14T03:19:07.876Z,73.40
2019-04-14T03:21:48.795Z,73.20
2019-04-14T03:27:01.800Z,73.50
2019-04-14T03:29:36.755Z,73.10
2019-04-14T03:37:30.677Z,73.60
2019-04-14T03:42:29.546Z,74.10
2019-04-14T03:44:34.818Z,74.00
2019-04-14T03:47:18.394Z,74.00
2019-04-14T03:49:37.998Z,74.50
2019-04-14T03:54:25.941Z,75.60
2019-04-14T03:56:46.632Z,75.60
2019-04-14T03:59:17.373Z,75.40
2019-04-14T04:01:47.753Z,75.30
2019-04-14T04:04:16.647Z,75.10
2019-04-14T04:06:46.300Z,74.90
2019-04-14T04:09:15.138Z,75.40
2019-04-14T04:11:43.766Z,75.50
2019-04-14T04:14:12.437Z,75.70
2019-04-14T04:16:59.497Z,75.40
2019-04-14T04:19:42.644Z,76.30
2019-04-14T04:22:28.338Z,75.60
2019-04-14T04:25:01.071Z,75.70
2019-04-14T04:27:35.148Z,76.20
2019-04-14T04:30:06.140Z,75.80
2019-04-14T04:32:45.416Z,75.90
2019-04-14T04:35:19.575Z,75.60
2019-04-14T04:37:56.307Z,75.70
2019-04-14T04:40:26.851Z,76.20
2019-04-14T04:42:55.464Z,76.40
2019-04-14T04:45:23.925Z,76.00
2019-04-14T04:47:53.426Z,76.00
2019-04-14T04:50:22.191Z,76.10
2019-04-14T04:52:51.749Z,75.90
2019-04-14T04:55:20.456Z,76.20
2019-04-14T04:57:50.180Z,76.10
2019-04-14T05:00:19.948Z,76.10
2019-04-14T05:02:48.760Z,76.70
2019-04-14T05:05:53.718Z,76.20
2019-04-14T05:08:22.333Z,76.10
2019-04-14T05:10:55.337Z,76.00
2019-04-14T05:13:24.903Z,75.70
2019-04-14T05:15:55.289Z,75.90
2019-04-14T05:18:24.711Z,76.60
2019-04-14T05:20:53.554Z,75.50
2019-04-14T05:23:23.339Z,75.90
2019-04-14T05:25:52.294Z,76.10
2019-04-14T05:28:21.963Z,76.10
2019-04-14T05:30:50.566Z,75.70
2019-04-14T05:33:19.074Z,75.40
2019-04-14T05:35:48.752Z,74.80
2019-04-14T05:38:17.561Z,75.10
2019-04-14T05:40:47.431Z,75.40
2019-04-14T05:43:28.274Z,75.50
2019-04-14T05:45:46.398Z,75.70
2019-04-14T05:48:16.001Z,75.40
2019-04-14T05:50:44.574Z,75.30
2019-04-14T05:53:13.227Z,75.40
2019-04-14T05:55:41.846Z,76.10
2019-04-14T05:58:10.469Z,75.20
2019-04-14T06:00:40.074Z,75.10
2019-04-14T06:03:08.632Z,75.10
2019-04-14T06:05:38.207Z,75.60
2019-04-14T06:08:06.875Z,75.50
2019-04-14T06:10:35.479Z,75.30
2019-04-14T06:13:04.216Z,75.50
2019-04-14T06:15:32.770Z,75.20
2019-04-14T06:18:01.306Z,75.20
2019-04-14T06:20:29.929Z,75.80
2019-04-14T06:22:58.464Z,76.10
2019-04-14T06:25:27.027Z,75.50
2019-04-14T06:27:55.656Z,75.80
2019-04-14T06:30:31.970Z,76.00
2019-04-14T06:33:02.145Z,76.30
2019-04-14T06:35:32.348Z,75.90
2019-04-14T06:38:05.948Z,75.30
2019-04-14T06:40:36.333Z,75.40
2019-04-14T06:43:04.869Z,75.70
2019-04-14T06:45:33.505Z,75.60
2019-04-14T06:48:02.123Z,76.00
2019-04-14T06:50:30.748Z,76.50
2019-04-14T06:52:59.314Z,77.50
2019-04-14T06:55:28.965Z,78.10
2019-04-14T06:57:57.573Z,77.90
2019-04-14T07:00:26.125Z,77.30
2019-04-14T07:02:54.758Z,77.70
2019-04-14T07:05:24.031Z,77.70
2019-04-14T07:07:57.242Z,77.10
2019-04-14T07:10:23.376Z,75.90
2019-04-14T07:12:51.936Z,74.40
2019-04-14T07:15:20.775Z,73.50
2019-04-14T07:17:51.242Z,72.80
2019-04-14T07:20:19.872Z,72.90
2019-04-14T07:22:49.405Z,72.90
2019-04-14T07:25:18.185Z,72.70
2019-04-14T07:27:46.785Z,72.80
2019-04-14T07:30:22.825Z,73.00
2019-04-14T07:32:54.291Z,73.40
2019-04-14T07:35:27.719Z,72.20
2019-04-14T07:38:13.887Z,71.70
2019-04-14T07:40:50.134Z,71.50
2019-04-14T07:43:21.374Z,71.80
2019-04-14T07:45:54.442Z,72.30
2019-04-14T07:48:52.890Z,72.70
2019-04-14T07:51:23.012Z,73.10
2019-04-14T07:53:53.205Z,72.10
2019-04-14T07:56:38.812Z,69.90
2019-04-14T07:59:11.690Z,69.90
2019-04-14T08:01:41.794Z,70.80
2019-04-14T08:04:14.430Z,71.40
2019-04-14T08:06:44.694Z,69.30
2019-04-14T08:09:13.294Z,68.40
2019-04-14T08:11:41.859Z,67.90
2019-04-14T08:14:10.468Z,69.20
2019-04-14T08:16:39.181Z,70.50
2019-04-14T08:19:07.701Z,70.60
2019-04-14T08:21:37.595Z,71.20
2019-04-14T08:24:06.217Z,71.30
2019-04-14T08:26:34.879Z,69.10
2019-04-14T08:29:03.648Z,68.30
2019-04-14T08:31:32.365Z,67.20
2019-04-14T08:34:00.902Z,66.60
2019-04-14T08:36:29.466Z,65.40
2019-04-14T08:38:58.069Z,65.20
2019-04-14T08:41:28.270Z,66.00
2019-04-14T08:44:13.590Z,64.80
2019-04-14T08:46:46.599Z,64.70
2019-04-14T08:49:22.843Z,63.30
2019-04-14T08:51:58.824Z,64.10
2019-04-14T08:54:31.778Z,60.80
2019-04-14T08:57:07.522Z,61.00
2019-04-14T08:59:43.497Z,59.90
2019-04-14T09:02:16.520Z,58.10
2019-04-14T09:04:55.278Z,59.40
2019-04-14T09:07:28.281Z,60.20
2019-04-14T09:10:07.076Z,58.60
2019-04-14T09:12:37.265Z,58.20
2019-04-14T09:15:07.477Z,58.50
2019-04-14T09:17:36.033Z,58.60
2019-04-14T09:20:06.032Z,58.00
2019-04-14T09:22:34.595Z,57.70
2019-04-14T09:25:03.215Z,57.20
2019-04-14T09:27:31.737Z,56.80
2019-04-14T09:30:04.205Z,55.60
2019-04-14T09:32:32.876Z,55.70
2019-04-14T09:35:01.446Z,56.70
2019-04-14T09:37:30.063Z,55.60
2019-04-14T09:39:58.770Z,56.30
2019-04-14T09:42:27.247Z,56.60
2019-04-14T09:44:55.772Z,56.90
2019-04-14T09:47:24.406Z,56.00
2019-04-14T09:49:53.613Z,55.60
2019-04-14T09:52:22.104Z,54.70
2019-04-14T09:54:50.602Z,54.50
2019-04-14T09:57:19.274Z,55.50
2019-04-14T09:59:47.905Z,55.40
2019-04-14T10:02:16.438Z,56.30
2019-04-14T10:04:45.062Z,58.40
2019-04-14T10:07:13.686Z,56.30
2019-04-14T10:09:42.393Z,56.20
2019-04-14T10:12:10.942Z,55.40
2019-04-14T10:14:39.692Z,54.00
2019-04-14T10:17:08.230Z,52.40
2019-04-14T10:19:36.862Z,52.00
2019-04-14T10:22:05.546Z,50.90
2019-04-14T10:24:34.097Z,51.00
2019-04-14T10:27:02.581Z,52.60
2019-04-14T10:29:31.190Z,51.10
2019-04-14T10:31:59.843Z,48.40
2019-04-14T10:34:28.450Z,47.70
2019-04-14T10:36:56.993Z,49.90
2019-04-14T10:39:25.544Z,50.70
2019-04-14T10:41:54.191Z,49.30
2019-04-14T10:44:22.816Z,48.10
2019-04-14T10:46:51.507Z,49.50
2019-04-14T10:49:23.085Z,52.60
2019-04-14T10:51:51.734Z,53.10
2019-04-14T10:54:20.407Z,52.50
2019-04-14T10:56:49.634Z,52.00
2019-04-14T10:59:18.275Z,50.80
2019-04-14T11:01:46.889Z,52.10
2019-04-14T11:04:15.450Z,52.70
2019-04-14T11:06:45.741Z,51.60
2019-04-14T11:09:15.652Z,51.80
2019-04-14T11:12:06.846Z,52.40
2019-04-14T11:14:37.132Z,51.70
2019-04-14T11:17:05.841Z,51.80
2019-04-14T11:19:34.411Z,52.80
2019-04-14T11:22:03.049Z,52.80
2019-04-14T11:24:32.031Z,53.00
2019-04-14T11:27:01.380Z,53.50
2019-04-14T11:29:31.133Z,54.90
2019-04-14T11:32:17.768Z,56.80
2019-04-14T11:34:50.825Z,57.20
2019-04-14T11:37:24.048Z,57.20
2019-04-14T11:39:52.702Z,56.80
2019-04-14T11:42:21.331Z,57.00
2019-04-14T11:44:50.095Z,57.20
2019-04-14T11:47:18.827Z,56.70
2019-04-14T11:49:55.121Z,57.20
2019-04-14T11:52:26.576Z,57.40
2019-04-14T11:54:57.861Z,56.60
2019-04-14T11:57:28.426Z,56.70
2019-04-14T12:00:13.476Z,56.10
2019-04-14T12:02:58.596Z,55.30
2019-04-14T12:05:28.962Z,55.10
2019-04-14T12:07:59.152Z,54.70
2019-04-14T12:10:28.290Z,55.60
2019-04-14T12:12:57.080Z,55.60
2019-04-14T12:15:25.620Z,55.60
2019-04-14T12:17:54.229Z,55.70
2019-04-14T12:20:23.070Z,55.50
2019-04-14T12:22:51.602Z,55.00
2019-04-14T12:25:26.379Z,54.20
2019-04-14T12:27:56.363Z,54.00
2019-04-14T12:30:29.108Z,54.30
2019-04-14T12:32:57.811Z,55.10
2019-04-14T12:35:26.370Z,55.30
2019-04-14T12:37:54.944Z,55.10
2019-04-14T12:40:23.607Z,54.90
2019-04-14T12:42:56.533Z,55.20
2019-04-14T12:45:42.811Z,55.70
2019-04-14T12:48:16.114Z,55.50
2019-04-14T12:50:49.226Z,56.20
2019-04-14T12:53:17.924Z,55.80
2019-04-14T12:55:46.545Z,56.20
2019-04-14T12:58:16.807Z,55.60
2019-04-14T13:00:47.003Z,55.40
2019-04-14T13:03:15.657Z,55.60
2019-04-14T13:05:44.307Z,55.20
2019-04-14T13:08:13.005Z,55.40
2019-04-14T13:10:41.771Z,55.80
2019-04-14T13:13:10.466Z,54.90
2019-04-14T13:15:39.082Z,55.00
2019-04-14T13:18:08.364Z,54.80
2019-04-14T13:20:37.086Z,54.50
2019-04-14T13:23:05.805Z,54.80
2019-04-14T13:25:34.413Z,55.10
2019-04-14T13:28:02.980Z,55.50
2019-04-14T13:30:35.668Z,55.30
2019-04-14T13:33:04.494Z,55.30
2019-04-14T13:35:33.117Z,55.10
2019-04-14T13:38:01.625Z,55.00
2019-04-14T13:40:30.306Z,55.70
2019-04-14T13:42:58.932Z,55.90
2019-04-14T13:45:27.611Z,55.50
2019-04-14T13:47:56.162Z,55.60
2019-04-14T13:50:24.697Z,55.60
2019-04-14T13:52:53.265Z,56.00
2019-04-14T13:55:22.047Z,55.40
2019-04-14T13:57:50.630Z,55.70
2019-04-14T14:00:19.804Z,56.00
2019-04-14T14:02:48.470Z,55.60
2019-04-14T14:05:17.156Z,55.20
2019-04-14T14:07:45.629Z,55.60
2019-04-14T14:10:14.719Z,55.90
2019-04-14T14:12:50.621Z,56.30
2019-04-14T14:15:37.099Z,56.10
2019-04-14T14:18:07.360Z,55.90
2019-04-14T14:20:49.234Z,56.40
2019-04-14T14:23:27.688Z,55.10
2019-04-14T14:25:57.157Z,54.30
2019-04-14T14:28:25.755Z,55.00
2019-04-14T14:30:54.412Z,55.50
2019-04-14T14:33:22.953Z,55.60
2019-04-14T14:35:51.447Z,56.10
2019-04-14T14:38:20.122Z,56.20
2019-04-14T14:40:49.199Z,56.20
2019-04-14T14:43:18.047Z,55.70
2019-04-14T14:45:54.102Z,56.70
2019-04-14T14:48:27.159Z,55.50
2019-04-14T14:51:29.143Z,55.10
2019-04-14T14:53:57.937Z,55.20
2019-04-14T14:56:26.647Z,55.40
2019-04-14T14:58:55.193Z,55.80
2019-04-14T15:01:23.822Z,55.60
2019-04-14T15:03:52.435Z,55.40
2019-04-14T15:06:21.103Z,54.90
2019-04-14T15:08:49.681Z,55.10
2019-04-14T15:11:18.230Z,55.20
2019-04-14T15:13:46.847Z,54.90
2019-04-14T15:16:15.401Z,55.20
2019-04-14T15:18:44.126Z,54.80
2019-04-14T15:21:12.683Z,55.30
2019-04-14T15:23:41.610Z,55.50
2019-04-14T15:26:15.177Z,55.80
2019-04-14T15:28:43.722Z,55.60
2019-04-14T15:31:12.283Z,55.60
2019-04-14T15:33:40.982Z,55.70
2019-04-14T15:36:15.253Z,55.40
2019-04-14T15:38:49.017Z,55.50
2019-04-14T15:41:18.113Z,55.90
2019-04-14T15:43:46.663Z,55.70
2019-04-14T15:46:15.269Z,55.40
2019-04-14T15:48:43.830Z,56.00
2019-04-14T15:51:12.433Z,56.80
2019-04-14T15:53:41.143Z,56.60
2019-04-14T15:56:11.471Z,57.10
2019-04-14T15:58:50.366Z,57.60
2019-04-14T16:01:23.391Z,57.50
2019-04-14T16:04:10.091Z,57.20
2019-04-14T16:06:40.377Z,57.10
2019-04-14T16:09:20.078Z,57.50
2019-04-14T16:11:59.364Z,58.20
2019-04-14T16:14:45.991Z,58.50
2019-04-14T16:17:28.185Z,59.20
2019-04-14T16:20:07.335Z,59.10
2019-04-14T16:22:38.835Z,58.70
2019-04-14T16:25:07.184Z,58.50
2019-04-14T16:27:43.606Z,58.80
2019-04-14T16:30:30.429Z,58.70
2019-04-14T16:33:06.413Z,58.40
2019-04-14T16:35:36.363Z,58.10
2019-04-14T16:38:05.091Z,58.60
2019-04-14T16:40:33.901Z,58.80
2019-04-14T16:43:02.539Z,58.90
2019-04-14T16:45:31.161Z,58.90
2019-04-14T16:47:59.799Z,59.00
2019-04-14T16:50:28.333Z,59.00
2019-04-14T16:53:01.366Z,59.30
2019-04-14T16:55:37.656Z,59.40
2019-04-14T16:58:08.003Z,59.60
2019-04-14T17:00:38.313Z,59.50
2019-04-14T17:03:07.017Z,58.80
2019-04-14T17:05:35.689Z,59.00
2019-04-14T17:08:04.694Z,59.10
2019-04-14T17:10:33.317Z,59.10
2019-04-14T17:13:02.011Z,59.50
2019-04-14T17:15:38.117Z,59.80
2019-04-14T17:18:24.571Z,60.10
2019-04-14T17:21:06.754Z,60.60
2019-04-14T17:23:36.949Z,61.00
2019-04-14T17:26:10.265Z,61.20
2019-04-14T17:28:40.389Z,60.90
2019-04-14T17:31:26.900Z,61.00
2019-04-14T17:34:12.137Z,61.10
2019-04-14T17:36:44.921Z,61.90
2019-04-14T17:39:18.238Z,61.20
2019-04-14T17:41:54.174Z,61.10
2019-04-14T17:44:27.115Z,61.20
2019-04-14T17:46:57.485Z,61.40
2019-04-14T17:49:27.761Z,61.40
2019-04-14T17:52:14.273Z,61.50
2019-04-14T17:54:50.361Z,61.60
2019-04-14T17:57:35.502Z,61.90
2019-04-14T18:00:27.870Z,62.10
2019-04-14T18:03:02.320Z,61.90
2019-04-14T18:05:32.625Z,62.10
2019-04-14T18:08:02.896Z,62.90
2019-04-14T18:10:33.097Z,62.50
2019-04-14T18:13:18.489Z,62.60
2019-04-14T18:16:06.843Z,62.70
2019-04-14T18:18:55.553Z,62.40
2019-04-14T18:21:24.178Z,62.50
2019-04-14T18:23:52.718Z,62.40
2019-04-14T18:26:21.502Z,62.60
2019-04-14T18:28:57.460Z,62.50
2019-04-14T18:31:30.386Z,62.60
2019-04-14T18:34:12.273Z,62.90
2019-04-14T18:36:57.798Z,63.00
2019-04-14T18:39:44.928Z,62.80
2019-04-14T18:42:27.180Z,62.90
2019-04-14T18:45:06.342Z,63.10
2019-04-14T18:47:36.676Z,63.30
2019-04-14T18:50:14.036Z,63.10
2019-04-14T18:52:50.045Z,63.10
2019-04-14T18:55:32.550Z,63.30
2019-04-14T18:58:11.462Z,63.50
2019-04-14T19:00:47.412Z,63.90
2019-04-14T19:03:16.033Z,63.40
2019-04-14T19:05:44.600Z,63.20
2019-04-14T19:08:13.298Z,63.50
2019-04-14T19:10:43.476Z,63.30
2019-04-14T19:13:31.460Z,63.60
2019-04-14T19:16:01.749Z,63.50
2019-04-14T19:18:32.102Z,63.30
2019-04-14T19:21:02.365Z,63.30
2019-04-14T19:23:30.982Z,63.60
2019-04-14T19:25:59.696Z,63.30
2019-04-14T19:28:28.391Z,63.10
2019-04-14T19:30:56.985Z,63.60
2019-04-14T19:33:25.577Z,64.00
2019-04-14T19:35:54.198Z,63.50
2019-04-14T19:38:22.921Z,64.00
2019-04-14T19:40:51.629Z,64.00
2019-04-14T19:43:24.098Z,63.80
2019-04-14T19:45:50.484Z,64.50
2019-04-14T19:48:19.039Z,64.80
2019-04-14T19:50:47.679Z,65.10
2019-04-14T19:53:16.269Z,65.90
2019-04-14T19:55:44.896Z,66.00
2019-04-14T19:58:13.430Z,66.40
2019-04-14T20:00:42.064Z,67.00
2019-04-14T20:03:10.612Z,67.20
2019-04-14T20:05:39.154Z,67.80
2019-04-14T20:08:07.758Z,68.10
2019-04-14T20:10:36.464Z,68.10
2019-04-14T20:13:05.149Z,68.30
2019-04-14T20:15:38.161Z,68.50
2019-04-14T20:18:25.108Z,69.00
2019-04-14T20:21:07.088Z,69.50
2019-04-14T20:23:38.813Z,69.70
2019-04-14T20:26:26.935Z,70.10
2019-04-14T20:28:59.713Z,69.90
2019-04-14T20:31:29.905Z,69.70
2019-04-14T20:33:58.540Z,70.30
2019-04-14T20:36:27.089Z,70.40
2019-04-14T20:38:55.776Z,70.80
2019-04-14T20:41:24.425Z,71.40
2019-04-14T20:43:52.926Z,71.20
2019-04-14T20:46:21.671Z,71.50
2019-04-14T20:48:50.298Z,71.50
2019-04-14T20:51:18.901Z,71.90
2019-04-14T20:53:47.541Z,72.20
2019-04-14T20:56:16.173Z,72.20
2019-04-14T20:58:53.584Z,72.60
2019-04-14T21:01:23.085Z,72.90
2019-04-14T21:03:59.270Z,73.50
2019-04-14T21:06:29.505Z,73.80
2019-04-14T21:09:04.904Z,74.20
2019-04-14T21:11:35.127Z,74.30
2019-04-14T21:14:14.373Z,74.50
2019-04-14T21:16:56.302Z,75.10
2019-04-14T21:19:29.198Z,75.10
2019-04-14T21:22:08.343Z,76.10
2019-04-14T21:24:44.036Z,75.80
2019-04-14T21:27:16.829Z,75.70
2019-04-14T21:29:47.070Z,76.20
2019-04-14T21:32:26.036Z,76.60
2019-04-14T21:35:08.063Z,76.40
2019-04-14T21:37:54.650Z,77.40
2019-04-14T21:40:27.725Z,77.90
2019-04-14T21:42:56.268Z,77.90
2019-04-14T21:45:26.173Z,78.40
2019-04-14T21:47:54.891Z,78.80
2019-04-14T21:50:23.587Z,79.30
2019-04-14T21:52:52.142Z,79.60
2019-04-14T21:55:20.752Z,80.00
2019-04-14T21:57:54.207Z,80.10
2019-04-14T22:00:43.994Z,80.40
2019-04-14T22:03:29.196Z,80.80
2019-04-14T22:06:02.270Z,81.20
2019-04-14T22:08:32.605Z,82.30
2019-04-14T22:11:02.853Z,83.30
2019-04-14T22:13:31.618Z,83.40
2019-04-14T22:16:00.479Z,83.70
2019-04-14T22:18:29.116Z,84.20
2019-04-14T22:20:57.850Z,84.50
2019-04-14T22:23:26.439Z,84.40
2019-04-14T22:25:55.082Z,85.50
2019-04-14T22:28:23.710Z,84.80
2019-04-14T22:30:52.393Z,84.60
2019-04-14T22:33:21.059Z,84.60
2019-04-14T22:35:49.637Z,84.80
2019-04-14T22:38:18.305Z,84.80
2019-04-14T22:40:46.861Z,84.10
2019-04-14T22:43:15.469Z,84.30
2019-04-14T22:45:44.166Z,84.50
2019-04-14T22:48:12.710Z,84.80
2019-04-14T22:50:41.401Z,85.10
2019-04-14T22:53:09.953Z,85.20
2019-04-14T22:55:38.570Z,85.80
2019-04-14T22:58:07.247Z,86.40
2019-04-14T23:00:40.341Z,85.90
2019-04-14T23:03:25.581Z,86.30
2019-04-14T23:05:55.853Z,86.50
2019-04-14T23:08:28.893Z,86.90
2019-04-14T23:11:15.530Z,87.50
2019-04-14T23:13:54.313Z,88.30
2019-04-14T23:16:33.169Z,88.20
2019-04-14T23:19:06.197Z,88.40
2019-04-14T23:21:42.438Z,88.30
2019-04-14T23:24:27.904Z,88.60
2019-04-14T23:26:56.622Z,89.20
2019-04-14T23:29:25.213Z,89.40
2019-04-14T23:31:53.938Z,89.90
2019-04-14T23:34:22.567Z,90.20
2019-04-14T23:36:51.130Z,90.30
2019-04-14T23:39:19.678Z,90.30
2019-04-14T23:41:48.276Z,90.10
2019-04-14T23:44:17.030Z,90.50
2019-04-14T23:46:45.641Z,90.70
2019-04-14T23:49:14.397Z,90.90
2019-04-14T23:51:42.946Z,90.70
2019-04-14T23:54:11.576Z,90.80
2019-04-14T23:56:40.103Z,91.30
2019-04-14T23:59:08.731Z,91.40
